Time;durP1;ratioP1;P1;durP2;ratioP2;P2;SDS_P1;SDS_P2;PMS_P1;PMS_P2;Temp;Humidity;BMP_temperature;BMP_pressure;BME280_temperature;BME280_humidity;BME280_pressure;Samples;Min_cycle;Max_cycle;Signal;HPM_P1;HPM_P2
2022/12/26 00:00:14;;;;;;;5.13;2.80;;;8.70;99.90;;;;;;5090145;28;20048;-69
2022/12/26 00:02:40;;;;;;;8.73;3.55;;;8.80;99.90;;;;;;5086166;28;20051;-69
2022/12/26 00:05:06;;;;;;;8.38;3.58;;;8.80;99.90;;;;;;5070202;28;20051;-69
2022/12/26 00:07:32;;;;;;;5.97;2.70;;;8.80;99.90;;;;;;5069138;28;20043;-69
2022/12/26 00:09:58;;;;;;;8.27;3.30;;;8.80;99.90;;;;;;5071998;28;20063;-69
2022/12/26 00:12:23;;;;;;;9.35;3.22;;;8.80;99.90;;;;;;5070314;28;20139;-69
2022/12/26 00:14:49;;;;;;;7.90;3.50;;;8.80;99.90;;;;;;5073763;28;20040;-69
2022/12/26 00:17:14;;;;;;;9.93;4.18;;;8.80;99.90;;;;;;5073707;28;20040;-69
2022/12/26 00:19:40;;;;;;;6.20;3.35;;;8.80;99.90;;;;;;5088607;28;20036;-69
2022/12/26 00:22:06;;;;;;;8.02;3.33;;;8.80;99.90;;;;;;5073894;28;20035;-70
2022/12/26 00:24:31;;;;;;;6.70;3.28;;;8.80;99.90;;;;;;5074444;28;20051;-69
2022/12/26 00:26:57;;;;;;;9.52;3.38;;;8.80;99.90;;;;;;5070089;28;20035;-69
2022/12/26 00:29:23;;;;;;;9.40;3.65;;;8.80;99.90;;;;;;5073434;28;20070;-69
2022/12/26 00:31:48;;;;;;;7.53;3.45;;;8.80;99.90;;;;;;5072175;28;20039;-69
2022/12/26 00:34:14;;;;;;;7.18;3.40;;;8.80;99.90;;;;;;5070235;28;20090;-69
2022/12/26 00:36:40;;;;;;;9.15;3.65;;;8.80;99.90;;;;;;5072104;28;20043;-69
2022/12/26 00:39:06;;;;;;;9.60;3.85;;;8.80;99.90;;;;;;5055941;28;20079;-69
2022/12/26 00:41:32;;;;;;;7.50;3.25;;;8.80;99.90;;;;;;5055875;28;20062;-69
2022/12/26 00:43:57;;;;;;;8.38;4.03;;;8.80;99.90;;;;;;5072339;28;20031;-69
2022/12/26 00:46:23;;;;;;;6.78;2.50;;;8.80;99.90;;;;;;5068305;28;20765;-69
2022/12/26 00:48:50;;;;;;;7.47;2.50;;;8.80;99.90;;;;;;5070265;28;20051;-69
2022/12/26 00:51:16;;;;;;;6.43;3.15;;;8.80;99.90;;;;;;5072762;28;20052;-69
2022/12/26 00:53:41;;;;;;;5.47;2.38;;;8.70;99.90;;;;;;5069456;28;20119;-69
2022/12/26 00:56:07;;;;;;;7.50;3.22;;;8.80;99.90;;;;;;5069171;28;20127;-69
2022/12/26 00:58:33;;;;;;;9.07;3.42;;;8.70;99.90;;;;;;5057709;28;20119;-69
2022/12/26 01:01:29;;;;;;;6.47;2.65;;;8.80;99.90;;;;;;5068706;28;20437;-69
2022/12/26 01:03:56;;;;;;;6.78;3.05;;;8.80;99.90;;;;;;5057314;28;20028;-69
2022/12/26 01:06:22;;;;;;;9.55;3.97;;;8.70;99.90;;;;;;5056215;28;20520;-69
2022/12/26 01:08:47;;;;;;;6.63;3.05;;;8.70;99.90;;;;;;5087376;28;20164;-69
2022/12/26 01:11:15;;;;;;;8.45;2.78;;;8.70;99.90;;;;;;5066806;28;20040;-69
2022/12/26 01:13:41;;;;;;;7.97;3.65;;;8.80;99.90;;;;;;5071986;28;20028;-69
2022/12/26 01:16:07;;;;;;;9.75;2.92;;;8.70;99.90;;;;;;5069466;28;20063;-69
2022/12/26 01:18:33;;;;;;;6.97;2.95;;;8.70;99.90;;;;;;5069615;28;20134;-69
2022/12/26 01:21:01;;;;;;;6.05;3.15;;;8.80;99.90;;;;;;5069270;28;20032;-69
2022/12/26 01:23:27;;;;;;;10.45;3.80;;;8.80;99.90;;;;;;5068332;28;20032;-69
2022/12/26 01:25:53;;;;;;;7.25;3.60;;;8.70;99.90;;;;;;5067097;28;20093;-69
2022/12/26 01:28:19;;;;;;;6.25;2.85;;;8.70;99.90;;;;;;5072314;28;20032;-69
2022/12/26 01:30:44;;;;;;;4.30;2.45;;;8.70;99.90;;;;;;5072129;28;20466;-69
2022/12/26 01:33:10;;;;;;;6.47;2.80;;;8.70;99.90;;;;;;5069497;28;20127;-69
2022/12/26 01:35:36;;;;;;;5.70;3.15;;;8.70;99.90;;;;;;5070775;28;20032;-69
2022/12/26 01:38:01;;;;;;;5.10;2.50;;;8.70;99.90;;;;;;5069724;28;20160;-69
2022/12/26 01:40:27;;;;;;;8.05;3.05;;;8.70;99.90;;;;;;5069025;28;20531;-69
2022/12/26 01:42:52;;;;;;;5.55;2.85;;;8.70;99.90;;;;;;5087485;28;20085;-69
2022/12/26 01:45:26;;;;;;;6.90;2.80;;;8.80;99.90;;;;;;5071684;28;20094;-69
2022/12/26 01:48:02;;;;;;;5.43;2.13;;;8.70;99.90;;;;;;5069506;28;20032;-69
2022/12/26 01:50:46;;;;;;;7.65;3.47;;;8.70;99.90;;;;;;5071118;28;20043;-69
2022/12/26 01:53:22;;;;;;;7.78;3.35;;;8.70;99.90;;;;;;5067776;28;20047;-69
2022/12/26 01:56:01;;;;;;;7.93;3.72;;;8.80;99.90;;;;;;5074716;28;20051;-69
2022/12/26 01:58:34;;;;;;;6.80;2.35;;;8.80;99.90;;;;;;5039291;28;20562;-69
2022/12/26 02:01:03;;;;;;;5.38;2.38;;;8.80;99.90;;;;;;5073539;28;20097;-69
2022/12/26 02:06:15;;;;;;;6.15;2.00;;;8.80;99.90;;;;;;5079607;28;20051;-69
2022/12/26 02:08:41;;;;;;;5.40;2.42;;;8.80;99.90;;;;;;5055900;28;20089;-69
2022/12/26 02:11:21;;;;;;;4.55;2.63;;;8.80;99.90;;;;;;5056004;28;20497;-69
2022/12/26 02:13:47;;;;;;;4.03;2.03;;;8.80;99.90;;;;;;5089980;28;20055;-69
2022/12/26 02:16:16;;;;;;;5.07;2.10;;;8.80;99.90;;;;;;5083660;28;20036;-70
2022/12/26 02:18:42;;;;;;;8.82;4.45;;;8.80;99.90;;;;;;5051416;28;20040;-69
2022/12/26 02:21:41;;;;;;;7.90;2.85;;;8.80;99.90;;;;;;5084273;28;20034;-69
2022/12/26 02:24:25;;;;;;;7.30;3.13;;;8.80;99.90;;;;;;5089607;28;20036;-69
2022/12/26 02:27:06;;;;;;;8.25;2.38;;;8.80;99.90;;;;;;5086884;28;20233;-69
2022/12/26 02:29:43;;;;;;;7.30;2.70;;;8.80;99.90;;;;;;5080947;28;20044;-69
2022/12/26 02:32:47;;;;;;;6.82;2.90;;;8.80;99.90;;;;;;5087216;28;20036;-69
2022/12/26 02:35:24;;;;;;;6.93;2.80;;;8.80;99.90;;;;;;5053065;28;20214;-69
2022/12/26 02:38:27;;;;;;;9.60;3.05;;;8.90;99.90;;;;;;5066408;28;20544;-69
2022/12/26 02:41:08;;;;;;;6.05;2.38;;;8.90;99.90;;;;;;5080397;28;20482;-69
2022/12/26 02:43:44;;;;;;;9.82;3.63;;;8.80;99.90;;;;;;5060613;28;20081;-69
2022/12/26 03:13:09;;;;;;;6.50;3.65;;;8.90;99.90;;;;;;5069849;28;20048;-69
2022/12/26 03:15:23;;;;;;;8.52;3.65;;;8.90;99.90;;;;;;5064831;28;20041;-69
2022/12/26 03:17:55;;;;;;;7.55;3.53;;;8.90;99.90;;;;;;5065601;28;20079;-69
2022/12/26 03:20:27;;;;;;;6.97;3.35;;;8.90;99.90;;;;;;5066135;28;20425;-69
2022/12/26 03:23:12;;;;;;;9.18;4.28;;;8.90;99.90;;;;;;5064935;28;20048;-69
2022/12/26 03:28:29;;;;;;;11.38;5.78;;;9.00;99.90;;;;;;5064465;28;20457;-69
2022/12/26 03:30:58;;;;;;;9.27;4.45;;;9.00;99.90;;;;;;5066354;28;20040;-69
2022/12/26 03:36:39;;;;;;;9.20;4.20;;;9.00;99.90;;;;;;5066817;28;20044;-69
2022/12/26 03:39:13;;;;;;;;;;;9.00;99.90;;;;;;5065933;28;20567;-69
2022/12/26 04:20:48;;;;;;;12.93;5.50;;;9.00;99.90;;;;;;5064444;28;20544;-69
2022/12/26 04:44:04;;;;;;;11.70;4.75;;;9.10;99.90;;;;;;5082751;28;20052;-69
2022/12/26 04:46:33;;;;;;;12.50;5.87;;;9.10;99.90;;;;;;5073656;28;20467;-69
2022/12/26 04:51:47;;;;;;;11.48;5.65;;;9.10;99.90;;;;;;5069049;28;20607;-70
2022/12/26 04:54:13;;;;;;;11.13;4.57;;;9.10;99.90;;;;;;5068453;28;20075;-69
2022/12/26 04:56:38;;;;;;;10.00;4.38;;;9.10;99.90;;;;;;5082115;28;20067;-70
2022/12/26 04:59:04;;;;;;;9.68;4.53;;;9.10;99.90;;;;;;5077557;28;20341;-70
2022/12/26 05:09:47;;;;;;;9.10;4.30;;;8.90;99.90;;;;;;5070757;28;20044;-69
2022/12/26 05:12:13;;;;;;;11.13;4.78;;;8.90;99.90;;;;;;5069816;28;20143;-69
2022/12/26 05:14:38;;;;;;;7.38;4.03;;;8.90;99.90;;;;;;5065588;28;20119;-69
2022/12/26 05:31:00;;;;;;;12.70;5.45;;;9.00;99.90;;;;;;5065974;28;20682;-70
2022/12/26 05:36:11;;;;;;;14.02;4.75;;;9.00;99.90;;;;;;5067120;28;20072;-70
2022/12/26 05:38:38;;;;;;;10.98;5.13;;;9.00;99.90;;;;;;5069394;28;20135;-70
2022/12/26 05:41:04;;;;;;;10.90;4.60;;;9.00;99.90;;;;;;5069207;28;20072;-70
2022/12/26 05:43:30;;;;;;;11.20;5.07;;;8.90;99.90;;;;;;5068239;28;20090;-70
2022/12/26 05:45:55;;;;;;;11.63;3.88;;;9.00;99.90;;;;;;5069283;28;20036;-70
2022/12/26 05:48:21;;;;;;;8.73;4.25;;;9.00;99.90;;;;;;5064301;28;20090;-70
2022/12/26 05:50:47;;;;;;;10.68;4.57;;;8.90;99.90;;;;;;5064201;28;20048;-69
2022/12/26 05:53:12;;;;;;;11.48;5.82;;;9.00;99.90;;;;;;5066167;28;20040;-70
2022/12/26 05:55:39;;;;;;;10.18;4.50;;;8.90;99.90;;;;;;5069056;28;20548;-70
2022/12/26 05:58:04;;;;;;;11.23;5.15;;;8.90;99.90;;;;;;5068318;28;20036;-70
2022/12/26 06:00:31;;;;;;;8.45;4.32;;;8.90;99.90;;;;;;5071203;28;20085;-69
2022/12/26 06:02:58;;;;;;;12.68;5.10;;;8.90;99.90;;;;;;5066327;28;20039;-69
2022/12/26 06:05:24;;;;;;;10.30;5.05;;;8.90;99.90;;;;;;5066083;28;20047;-70
2022/12/26 06:07:49;;;;;;;9.38;4.93;;;8.90;99.90;;;;;;5067660;28;20066;-70
2022/12/26 06:10:15;;;;;;;12.70;4.55;;;8.90;99.90;;;;;;5068319;28;20052;-69
2022/12/26 06:12:41;;;;;;;12.25;4.80;;;8.90;99.90;;;;;;5068922;28;20513;-70
2022/12/26 06:15:07;;;;;;;10.35;4.75;;;8.90;99.90;;;;;;5068462;28;20051;-70
2022/12/26 06:17:32;;;;;;;9.55;4.10;;;8.90;99.90;;;;;;5067689;28;20047;-70
2022/12/26 06:19:58;;;;;;;10.73;4.15;;;8.90;99.90;;;;;;5063567;28;20040;-70
2022/12/26 06:22:23;;;;;;;15.90;4.55;;;8.90;99.90;;;;;;5067394;28;20041;-70
2022/12/26 06:24:49;;;;;;;10.30;4.57;;;8.90;99.90;;;;;;5068558;28;20040;-70
2022/12/26 06:27:15;;;;;;;10.23;4.38;;;8.90;99.90;;;;;;5069323;28;20367;-70
2022/12/26 06:29:40;;;;;;;9.10;4.50;;;8.90;99.90;;;;;;5067915;28;20044;-70
2022/12/26 06:32:06;;;;;;;7.55;3.90;;;8.90;99.90;;;;;;5068867;28;20048;-70
2022/12/26 06:34:31;;;;;;;7.70;3.58;;;8.90;99.90;;;;;;5064363;28;20525;-69
2022/12/26 06:36:57;;;;;;;10.15;5.18;;;8.90;99.90;;;;;;5047373;28;20486;-70
2022/12/26 06:39:23;;;;;;;10.32;4.10;;;8.90;99.90;;;;;;5065359;28;20029;-70
2022/12/26 06:41:50;;;;;;;13.57;5.95;;;9.00;99.90;;;;;;5068818;28;20375;-69
2022/12/26 06:44:15;;;;;;;9.38;4.07;;;9.00;99.90;;;;;;5066231;28;20470;-70
2022/12/26 06:46:41;;;;;;;8.65;4.18;;;9.00;99.90;;;;;;5067326;28;20089;-70
2022/12/26 06:49:06;;;;;;;10.25;5.07;;;9.00;99.90;;;;;;5057591;28;20570;-70
2022/12/26 06:51:34;;;;;;;6.78;3.75;;;9.00;99.90;;;;;;5063888;28;20036;-69
2022/12/26 06:54:03;;;;;;;10.00;4.75;;;9.00;99.90;;;;;;5048754;28;20482;-70
2022/12/26 06:56:30;;;;;;;10.48;4.07;;;9.00;99.90;;;;;;5065204;28;20039;-70
2022/12/26 06:59:03;;;;;;;8.23;3.03;;;9.00;99.90;;;;;;5066388;28;20041;-70
2022/12/26 07:01:31;;;;;;;8.90;4.75;;;9.00;99.90;;;;;;5063411;28;20401;-70
2022/12/26 07:03:58;;;;;;;7.30;3.72;;;9.00;99.90;;;;;;5064551;28;20054;-70
2022/12/26 07:06:27;;;;;;;12.05;3.58;;;9.00;99.90;;;;;;5064204;28;20468;-70
2022/12/26 07:09:04;;;;;;;7.03;3.33;;;9.00;99.90;;;;;;5068450;28;20375;-70
2022/12/26 07:11:33;;;;;;;9.15;3.42;;;9.10;99.90;;;;;;5054409;28;20135;-70
2022/12/26 07:13:59;;;;;;;9.50;4.10;;;9.10;99.90;;;;;;5088702;28;20055;-70
2022/12/26 07:16:25;;;;;;;9.07;4.20;;;9.00;99.90;;;;;;5073111;28;20056;-70
2022/12/26 07:18:52;;;;;;;7.32;3.60;;;9.10;99.90;;;;;;5066684;28;20115;-69
2022/12/26 07:21:18;;;;;;;6.07;2.95;;;9.10;99.90;;;;;;5066332;28;20685;-70
2022/12/26 07:23:43;;;;;;;8.13;3.45;;;9.10;99.90;;;;;;5066888;28;20040;-70
2022/12/26 07:26:09;;;;;;;5.88;2.90;;;9.10;99.90;;;;;;5060775;28;20045;-70
2022/12/26 07:28:35;;;;;;;7.10;3.53;;;9.00;99.90;;;;;;5062361;28;20051;-70
2022/12/26 07:31:01;;;;;;;7.13;3.40;;;9.00;99.90;;;;;;5054337;28;20164;-70
2022/12/26 07:33:27;;;;;;;7.90;3.20;;;9.00;99.90;;;;;;5082984;28;20048;-70
2022/12/26 07:35:53;;;;;;;10.10;4.35;;;9.00;99.90;;;;;;5081872;28;20097;-70
2022/12/26 07:38:19;;;;;;;6.50;3.97;;;9.00;99.90;;;;;;5068045;28;20045;-69
2022/12/26 07:40:44;;;;;;;8.20;4.30;;;9.00;99.90;;;;;;5074561;28;20047;-70
2022/12/26 07:43:10;;;;;;;5.88;3.40;;;9.00;99.90;;;;;;5090893;28;20041;-70
2022/12/26 07:45:36;;;;;;;10.05;4.30;;;9.10;99.90;;;;;;5054668;28;20024;-71
2022/12/26 07:48:01;;;;;;;6.68;3.30;;;9.10;99.90;;;;;;5059663;28;20540;-70
2022/12/26 07:50:27;;;;;;;7.38;2.90;;;9.10;99.90;;;;;;5066889;28;20041;-70
2022/12/26 07:52:53;;;;;;;8.20;3.38;;;9.10;99.90;;;;;;5066774;28;20032;-70
2022/12/26 07:55:19;;;;;;;6.57;3.50;;;9.10;99.90;;;;;;5060006;28;20093;-69
2022/12/26 07:57:49;;;;;;;7.90;3.92;;;9.10;99.90;;;;;;5068727;28;20436;-69
2022/12/26 08:00:14;;;;;;;7.70;3.70;;;9.10;99.90;;;;;;5068620;28;20044;-70
2022/12/26 08:02:40;;;;;;;9.07;4.75;;;9.10;99.90;;;;;;5074474;28;20032;-70
2022/12/26 08:05:06;;;;;;;7.15;3.50;;;9.10;99.90;;;;;;5059377;28;20067;-70
2022/12/26 08:07:32;;;;;;;8.05;3.85;;;9.10;99.90;;;;;;5046290;28;20597;-70
2022/12/26 08:09:57;;;;;;;8.13;3.95;;;9.10;99.90;;;;;;5089135;28;20032;-70
2022/12/26 08:12:23;;;;;;;7.85;4.07;;;9.10;99.90;;;;;;5070735;28;20133;-69
2022/12/26 08:14:49;;;;;;;6.55;3.80;;;9.00;99.90;;;;;;5078543;28;20043;-70
2022/12/26 08:17:15;;;;;;;8.98;4.43;;;9.00;99.90;;;;;;5061482;28;20115;-70
2022/12/26 08:19:40;;;;;;;7.93;3.58;;;9.00;99.90;;;;;;5064548;28;20170;-70
2022/12/26 08:22:06;;;;;;;7.20;3.15;;;9.00;99.90;;;;;;5079155;28;20093;-70
2022/12/26 08:24:31;;;;;;;6.55;3.13;;;9.00;99.90;;;;;;5078088;28;20539;-70
2022/12/26 08:26:57;;;;;;;6.47;3.33;;;9.00;99.90;;;;;;5064958;28;20036;-70
2022/12/26 08:29:22;;;;;;;6.70;3.58;;;9.00;99.90;;;;;;5059008;28;20201;-70
2022/12/26 08:31:48;;;;;;;5.07;2.70;;;9.00;99.90;;;;;;5087737;28;20052;-70
2022/12/26 08:34:14;;;;;;;8.07;3.13;;;9.00;99.90;;;;;;5085344;28;20105;-70
2022/12/26 08:36:40;;;;;;;4.88;2.75;;;9.00;99.90;;;;;;5047658;28;20035;-69
2022/12/26 08:39:05;;;;;;;8.60;3.10;;;9.10;99.90;;;;;;5063477;28;20390;-69
2022/12/26 08:41:31;;;;;;;6.68;3.30;;;9.10;99.90;;;;;;5067803;28;20082;-70
2022/12/26 08:43:56;;;;;;;4.70;2.95;;;9.10;99.90;;;;;;5076808;28;20039;-69
2022/12/26 08:46:22;;;;;;;8.52;3.42;;;9.10;99.90;;;;;;5070873;28;20040;-69
2022/12/26 08:48:49;;;;;;;7.20;3.17;;;9.10;99.90;;;;;;5084972;28;20420;-69
2022/12/26 08:51:23;;;;;;;4.88;2.75;;;9.10;99.90;;;;;;5068162;28;20049;-70
2022/12/26 08:53:50;;;;;;;5.63;2.35;;;9.20;99.90;;;;;;5071247;28;20040;-71
2022/12/26 08:56:21;;;;;;;6.28;3.05;;;9.20;99.90;;;;;;5063875;28;20044;-70
2022/12/26 08:58:47;;;;;;;4.00;2.30;;;9.20;99.90;;;;;;5069559;28;20036;-70
2022/12/26 09:01:22;;;;;;;6.88;2.50;;;9.20;99.90;;;;;;5063738;28;20395;-70
2022/12/26 09:03:50;;;;;;;7.00;2.72;;;9.20;99.90;;;;;;5072001;28;20063;-70
2022/12/26 09:06:16;;;;;;;5.45;2.80;;;9.20;99.90;;;;;;5071467;28;20541;-70
2022/12/26 09:08:42;;;;;;;5.80;1.60;;;9.30;99.90;;;;;;5076165;28;20044;-73
2022/12/26 09:11:17;;;;;;;3.38;1.92;;;9.20;99.90;;;;;;5084063;28;20048;-76
2022/12/26 09:13:43;;;;;;;4.25;2.20;;;9.30;99.90;;;;;;5071430;28;20054;-70
2022/12/26 09:16:11;;;;;;;2.55;1.38;;;9.30;99.90;;;;;;5086956;28;20485;-70
2022/12/26 09:18:37;;;;;;;4.35;1.70;;;9.30;99.90;;;;;;5084976;28;20032;-69
2022/12/26 09:21:05;;;;;;;3.55;1.70;;;9.30;99.90;;;;;;5088564;28;20043;-69
2022/12/26 09:23:31;;;;;;;5.35;2.45;;;9.30;99.90;;;;;;5085430;28;20032;-70
2022/12/26 09:26:05;;;;;;;5.63;2.00;;;9.40;99.90;;;;;;5085427;28;20044;-70
2022/12/26 09:28:30;;;;;;;2.33;1.67;;;9.30;99.90;;;;;;5071120;28;20047;-70
2022/12/26 09:30:59;;;;;;;4.05;1.60;;;9.40;99.90;;;;;;5079862;28;20044;-70
2022/12/26 09:33:25;;;;;;;2.42;1.05;;;9.30;99.90;;;;;;5068591;28;20052;-70
2022/12/26 09:35:51;;;;;;;4.32;2.35;;;9.30;99.90;;;;;;5082268;28;20405;-69
2022/12/26 09:38:16;;;;;;;3.70;1.85;;;9.30;99.90;;;;;;5090218;28;20071;-70
2022/12/26 09:41:21;;;;;;;5.25;2.00;;;9.30;99.90;;;;;;5073822;28;20036;-70
2022/12/26 09:44:00;;;;;;;2.88;1.70;;;9.30;99.90;;;;;;5046359;28;20054;-69
2022/12/26 09:46:41;;;;;;;5.45;1.85;;;9.30;99.90;;;;;;5067601;28;20044;-70
2022/12/26 09:49:17;;;;;;;9.93;2.17;;;9.40;99.90;;;;;;5055885;28;20059;-70
2022/12/26 09:51:48;;;;;;;2.85;1.30;;;9.40;99.90;;;;;;5052834;28;20040;-70
2022/12/26 09:54:35;;;;;;;2.00;1.10;;;9.30;99.90;;;;;;5071406;28;20189;-70
2022/12/26 09:57:06;;;;;;;1.70;1.02;;;9.40;99.90;;;;;;5065008;28;20055;-70
2022/12/26 09:59:42;;;;;;;3.50;1.17;;;9.40;99.90;;;;;;5080824;28;20076;-70
2022/12/26 10:02:21;;;;;;;;;;;9.40;99.90;;;;;;5070775;28;20093;-70
2022/12/26 10:04:47;;;;;;;1.98;0.93;;;9.40;99.90;;;;;;5065474;28;20364;-70
2022/12/26 10:07:38;;;;;;;2.35;1.20;;;9.30;99.90;;;;;;5085965;28;20039;-70
2022/12/26 10:10:11;;;;;;;2.55;1.27;;;9.30;99.90;;;;;;5089491;28;20032;-70
2022/12/26 10:12:58;;;;;;;2.03;0.75;;;9.30;99.90;;;;;;5071197;28;20131;-70
2022/12/26 10:15:35;;;;;;;2.30;0.50;;;9.20;99.90;;;;;;5075282;28;20109;-69
2022/12/26 10:18:05;;;;;;;3.30;0.50;;;9.10;99.90;;;;;;5061058;28;20581;-69
2022/12/26 10:20:58;;;;;;;0.85;0.30;;;9.00;99.90;;;;;;5052060;28;20497;-69
2022/12/26 10:23:38;;;;;;;1.00;0.43;;;8.90;99.90;;;;;;5073773;28;20061;-69
2022/12/26 10:26:23;;;;;;;1.02;0.47;;;8.80;99.90;;;;;;5055001;28;20070;-70
2022/12/26 10:29:08;;;;;;;1.95;0.52;;;8.70;99.90;;;;;;5075865;28;20478;-70
2022/12/26 10:32:00;;;;;;;1.95;0.35;;;8.60;99.90;;;;;;5066077;28;20122;-69
2022/12/26 10:34:50;;;;;;;2.70;0.60;;;8.50;99.90;;;;;;5024131;28;20047;-69
2022/12/26 10:37:36;;;;;;;0.45;0.25;;;8.40;99.90;;;;;;5056852;28;20044;-69
2022/12/26 10:40:11;;;;;;;2.67;0.47;;;8.40;99.90;;;;;;5076739;28;20040;-69
2022/12/26 10:42:40;;;;;;;1.48;0.10;;;8.40;99.90;;;;;;5061718;28;20044;-69
2022/12/26 10:45:15;;;;;;;5.32;1.17;;;8.30;99.90;;;;;;5078076;28;20449;-70
2022/12/26 10:47:44;;;;;;;0.20;0.20;;;8.30;99.90;;;;;;5042591;28;20090;-69
2022/12/26 10:50:16;;;;;;;0.52;0.30;;;8.30;99.90;;;;;;5053304;28;20066;-70
2022/12/26 10:52:42;;;;;;;5.05;0.65;;;8.30;99.90;;;;;;5056336;28;20059;-71
2022/12/26 10:55:13;;;;;;;2.35;0.50;;;8.30;99.90;;;;;;5060935;28;20036;-69
2022/12/26 10:57:41;;;;;;;5.78;0.70;;;8.30;99.90;;;;;;5059818;28;20575;-69
2022/12/26 11:00:23;;;;;;;28.60;9.23;;;8.30;99.90;;;;;;5065171;28;20405;-69
2022/12/26 11:03:11;;;;;;;4.03;1.80;;;8.30;99.90;;;;;;5044027;28;20035;-69
2022/12/26 11:05:41;;;;;;;6.78;1.48;;;8.30;99.90;;;;;;5061428;28;20074;-69
2022/12/26 11:08:45;;;;;;;2.55;0.45;;;8.30;99.90;;;;;;5042774;28;20040;-69
2022/12/26 11:11:16;;;;;;;6.50;0.47;;;8.20;99.90;;;;;;5053191;28;20051;-69
2022/12/26 11:13:51;;;;;;;2.80;1.08;;;8.20;99.90;;;;;;5042488;28;20146;-68
2022/12/26 11:16:30;;;;;;;2.20;0.83;;;8.10;99.90;;;;;;5057843;28;20048;-69
2022/12/26 11:18:57;;;;;;;1.75;0.43;;;8.10;99.90;;;;;;5059410;28;20302;-69
2022/12/26 11:21:26;;;;;;;1.95;0.68;;;8.00;99.90;;;;;;5075547;28;20050;-69
2022/12/26 11:24:18;;;;;;;3.95;0.88;;;8.00;99.90;;;;;;5042911;28;20569;-69
2022/12/26 11:26:44;;;;;;;1.27;0.30;;;7.90;99.90;;;;;;5060829;28;20044;-69
2022/12/26 11:29:15;;;;;;;4.85;0.30;;;7.90;99.90;;;;;;5048582;28;20036;-69
2022/12/26 11:31:53;;;;;;;1.35;0.63;;;8.00;99.90;;;;;;5063580;28;20032;-69
2022/12/26 11:34:31;;;;;;;0.32;0.30;;;8.00;99.90;;;;;;5061128;28;20935;-69
2022/12/26 11:36:56;;;;;;;2.28;0.40;;;7.90;99.90;;;;;;5036162;28;20082;-69
2022/12/26 11:39:25;;;;;;;0.68;0.30;;;7.90;99.90;;;;;;5067719;28;20467;-69
2022/12/26 11:41:52;;;;;;;0.35;0.00;;;7.90;99.90;;;;;;5051083;28;20044;-68
2022/12/26 11:44:34;;;;;;;0.30;0.20;;;7.90;99.90;;;;;;5053499;28;20085;-69
2022/12/26 11:47:21;;;;;;;0.35;0.35;;;7.90;99.90;;;;;;5047513;28;20050;-69
2022/12/26 11:50:01;;;;;;;2.70;0.30;;;7.90;99.90;;;;;;5038019;28;20151;-69
2022/12/26 11:52:44;;;;;;;0.50;0.20;;;7.90;99.90;;;;;;5049644;28;20398;-69
2022/12/26 11:55:25;;;;;;;1.92;0.30;;;7.90;99.90;;;;;;5066631;28;20051;-69
2022/12/26 11:58:05;;;;;;;1.73;0.50;;;7.90;99.90;;;;;;5052555;28;20485;-69
2022/12/26 12:00:32;;;;;;;3.00;0.35;;;7.80;99.90;;;;;;5056862;28;20777;-69
2022/12/26 12:02:58;;;;;;;7.57;0.40;;;7.80;99.90;;;;;;5049998;28;20041;-69
2022/12/26 12:05:26;;;;;;;8.07;1.27;;;7.80;99.90;;;;;;5047980;28;20042;-69
2022/12/26 12:08:21;;;;;;;1.00;0.30;;;7.90;99.90;;;;;;5053235;28;20051;-69
2022/12/26 12:10:55;;;;;;;1.63;0.47;;;7.80;99.90;;;;;;5053615;28;20311;-69
2022/12/26 12:13:30;;;;;;;2.75;0.65;;;7.80;99.90;;;;;;5032068;28;20126;-69
2022/12/26 12:16:28;;;;;;;7.07;0.57;;;7.80;99.90;;;;;;5052036;28;20142;-68
2022/12/26 12:19:15;;;;;;;3.15;0.47;;;7.80;99.90;;;;;;5064594;28;20439;-69
2022/12/26 12:22:01;;;;;;;5.68;0.55;;;7.80;99.90;;;;;;5051590;28;20052;-69
2022/12/26 12:24:54;;;;;;;2.53;0.45;;;7.80;99.90;;;;;;5035452;28;20115;-69
2022/12/26 12:27:30;;;;;;;1.48;0.30;;;7.80;99.90;;;;;;5045553;28;20047;-69
2022/12/26 12:30:12;;;;;;;1.10;0.32;;;7.80;99.90;;;;;;5033427;28;20036;-69
2022/12/26 12:33:03;;;;;;;1.00;0.22;;;7.90;99.90;;;;;;5051668;28;20724;-70
2022/12/26 12:36:04;;;;;;;4.82;0.45;;;7.80;99.90;;;;;;5047763;28;20055;-69
2022/12/26 12:38:35;;;;;;;5.88;0.50;;;7.90;99.90;;;;;;5048605;28;20089;-68
2022/12/26 12:41:27;;;;;;;2.15;0.28;;;7.90;99.90;;;;;;5052548;28;20071;-69
2022/12/26 12:44:11;;;;;;;5.10;0.85;;;7.80;99.90;;;;;;5048247;28;20526;-69
2022/12/26 12:46:42;;;;;;;1.80;0.73;;;7.80;99.90;;;;;;5049885;28;20346;-69
2022/12/26 12:49:20;;;;;;;2.65;0.47;;;7.90;99.90;;;;;;5053221;28;20047;-69
2022/12/26 12:52:11;;;;;;;3.17;0.35;;;7.90;99.90;;;;;;5057272;28;20052;-69
2022/12/26 12:54:52;;;;;;;3.97;0.20;;;7.90;99.90;;;;;;5069494;28;20567;-71
2022/12/26 12:57:40;;;;;;;1.60;0.90;;;7.90;99.90;;;;;;5025446;28;20036;-68
2022/12/26 13:00:12;;;;;;;3.90;0.50;;;7.80;99.90;;;;;;5067141;28;20051;-71
2022/12/26 13:02:42;;;;;;;5.05;1.90;;;7.70;99.90;;;;;;5051063;28;20040;-68
2022/12/26 13:05:24;;;;;;;0.88;0.65;;;7.70;99.90;;;;;;5049341;28;20040;-68
2022/12/26 13:07:58;;;;;;;1.85;0.45;;;7.70;99.90;;;;;;5055412;28;20138;-69
2022/12/26 13:10:34;;;;;;;3.22;0.50;;;7.70;99.90;;;;;;5051222;28;20074;-69
2022/12/26 13:13:17;;;;;;;5.25;0.75;;;7.70;99.90;;;;;;5067777;28;20047;-69
2022/12/26 13:15:47;;;;;;;1.75;0.55;;;7.60;99.90;;;;;;5053166;28;20051;-69
2022/12/26 13:18:21;;;;;;;3.28;0.57;;;7.60;99.90;;;;;;5054852;28;20067;-69
2022/12/26 13:20:52;;;;;;;2.63;0.70;;;7.60;99.90;;;;;;5054119;28;20032;-68
2022/12/26 13:26:44;;;;;;;1.88;0.60;;;7.50;99.90;;;;;;5057860;28;20131;-69
2022/12/26 13:29:15;;;;;;;2.38;0.40;;;7.50;99.90;;;;;;5038350;28;20059;-69
2022/12/26 13:31:41;;;;;;;0.68;0.57;;;7.50;99.90;;;;;;5053440;28;22130;-68
2022/12/26 13:34:13;;;;;;;1.85;0.60;;;7.50;99.90;;;;;;5071106;28;20032;-68
2022/12/26 13:36:47;;;;;;;3.47;0.52;;;7.40;99.90;;;;;;5055303;28;20736;-68
2022/12/26 13:39:26;;;;;;;9.30;1.48;;;7.40;99.90;;;;;;5074876;28;20055;-70
2022/12/26 13:44:52;;;;;;;3.47;0.80;;;7.30;99.90;;;;;;5050243;28;20039;-69
2022/12/26 13:47:35;;;;;;;4.07;0.60;;;7.30;99.90;;;;;;5048130;28;20046;-69
2022/12/26 13:50:39;;;;;;;3.47;0.60;;;7.30;99.90;;;;;;5051180;28;20047;-69
2022/12/26 13:53:24;;;;;;;8.85;0.68;;;7.30;99.90;;;;;;5050657;28;20485;-69
2022/12/26 13:55:55;;;;;;;3.58;0.65;;;7.30;99.90;;;;;;5054184;28;20505;-71
2022/12/26 13:58:48;;;;;;;5.95;0.98;;;7.30;99.90;;;;;;5051996;28;20037;-69
2022/12/26 14:01:51;;;;;;;4.93;0.90;;;7.30;99.90;;;;;;5032958;28;20119;-69
2022/12/26 14:04:26;;;;;;;7.13;0.45;;;7.20;99.90;;;;;;5049832;28;20513;-68
2022/12/26 14:07:10;;;;;;;3.47;0.40;;;7.30;99.90;;;;;;5051326;28;20393;-69
2022/12/26 14:09:54;;;;;;;5.88;0.88;;;7.30;99.90;;;;;;5057819;28;20040;-69
2022/12/26 14:12:29;;;;;;;0.20;0.20;;;7.30;99.90;;;;;;5056627;28;20056;-69
2022/12/26 14:15:28;;;;;;;1.10;0.35;;;7.30;99.90;;;;;;5056163;28;20386;-69
2022/12/26 14:18:20;;;;;;;2.03;0.10;;;7.30;99.90;;;;;;5031742;28;20490;-71
2022/12/26 14:20:52;;;;;;;4.10;0.47;;;7.30;99.90;;;;;;5053217;28;20125;-69
2022/12/26 14:23:21;;;;;;;4.90;0.65;;;7.20;99.90;;;;;;5055561;28;20434;-71
2022/12/26 14:25:51;;;;;;;5.05;1.27;;;7.20;99.90;;;;;;5053668;28;20878;-69
2022/12/26 14:28:16;;;;;;;2.10;0.80;;;7.20;99.90;;;;;;5038966;28;20044;-69
2022/12/26 14:31:04;;;;;;;1.85;0.52;;;7.20;99.90;;;;;;5051480;28;20036;-69
2022/12/26 14:33:57;;;;;;;4.68;0.63;;;7.20;99.90;;;;;;5043015;28;20036;-69
2022/12/26 14:36:41;;;;;;;2.28;0.98;;;7.20;99.90;;;;;;5020767;28;20064;-69
2022/12/26 14:39:41;;;;;;;5.45;0.73;;;7.10;99.90;;;;;;5053548;28;20416;-69
2022/12/26 14:44:59;;;;;;;3.45;0.90;;;7.00;99.90;;;;;;5055380;28;20044;-69
2022/12/26 14:47:46;;;;;;;4.05;1.92;;;7.00;99.90;;;;;;5051594;28;20058;-69
2022/12/26 14:50:36;;;;;;;2.47;1.17;;;6.90;99.90;;;;;;5057693;28;20076;-69
2022/12/26 14:53:26;;;;;;;2.63;0.55;;;6.90;99.90;;;;;;5059872;28;20393;-70
2022/12/26 14:56:06;;;;;;;2.40;0.52;;;6.90;99.90;;;;;;5052970;28;20044;-69
2022/12/26 14:58:49;;;;;;;1.45;0.50;;;6.90;99.90;;;;;;5048582;28;20623;-69
2022/12/26 15:01:16;;;;;;;1.17;0.80;;;6.90;99.90;;;;;;5051567;28;20086;-69
2022/12/26 15:04:13;;;;;;;6.43;0.75;;;6.90;99.90;;;;;;5039437;28;20063;-69
2022/12/26 15:07:10;;;;;;;2.78;0.75;;;6.80;99.90;;;;;;5043968;28;20505;-69
2022/12/26 15:09:53;;;;;;;0.65;0.30;;;6.80;99.90;;;;;;5054959;28;20131;-69
2022/12/26 15:12:27;;;;;;;1.92;0.85;;;6.80;99.90;;;;;;5064793;28;20757;-73
2022/12/26 15:15:14;;;;;;;2.78;0.85;;;6.80;99.90;;;;;;5037288;28;20492;-69
2022/12/26 15:18:10;;;;;;;0.75;0.30;;;6.70;99.90;;;;;;5065473;28;20102;-69
2022/12/26 15:21:07;;;;;;;1.00;0.40;;;6.70;99.90;;;;;;5054134;28;20084;-69
2022/12/26 15:23:58;;;;;;;2.10;0.60;;;6.70;99.90;;;;;;5039855;28;20401;-69
2022/12/26 15:26:35;;;;;;;8.32;1.63;;;6.70;99.90;;;;;;5050176;28;20350;-69
2022/12/26 15:29:24;;;;;;;4.50;1.27;;;6.60;99.90;;;;;;5071922;28;20165;-69
2022/12/26 15:32:07;;;;;;;7.15;1.88;;;6.60;99.90;;;;;;5057153;28;20053;-70
2022/12/26 15:34:55;;;;;;;4.63;1.10;;;6.60;99.90;;;;;;5052227;28;20108;-70
2022/12/26 15:37:35;;;;;;;2.63;1.02;;;6.50;99.90;;;;;;5069787;28;20039;-69